Time;durP1;ratioP1;P1;durP2;ratioP2;P2;SDS_P1;SDS_P2;PMS_P1;PMS_P2;Temp;Humidity;BMP_temperature;BMP_pressure;BME280_temperature;BME280_humidity;BME280_pressure;Samples;Min_cycle;Max_cycle;Signal;HPM_P1;HPM_P2
2023/06/07 05:47:07;;;;;;;;;;;;;;;;;;;;;
2023/06/07 05:56:16;;;;;;;10.50;10.20;;;16.50;99.90;;;;;;5010910;28;20230;-91
2023/06/07 05:59:41;;;;;;;10.68;10.38;;;16.50;99.90;;;;;;5047230;28;20231;-92
2023/06/07 06:03:06;;;;;;;10.85;10.55;;;16.60;99.90;;;;;;4992111;28;20332;-92
2023/06/07 06:54:46;;;;;;;10.40;10.10;;;18.30;99.90;;;;;;4968035;28;20231;-88
2023/06/07 06:57:15;;;;;;;10.30;10.00;;;18.40;99.90;;;;;;5045303;28;20215;-90
2023/06/07 07:05:21;;;;;;;10.10;9.80;;;18.70;99.90;;;;;;5043197;28;20216;-88
2023/06/07 07:07:57;;;;;;;10.40;10.10;;;18.70;99.90;;;;;;5061146;28;20251;-90
2023/06/07 07:10:27;;;;;;;10.38;10.07;;;18.90;99.90;;;;;;5048075;28;20261;-89
2023/06/07 07:12:58;;;;;;;10.10;9.80;;;19.00;99.90;;;;;;5046763;28;20236;-90
2023/06/07 07:15:36;;;;;;;9.98;9.68;;;19.10;99.90;;;;;;5051032;28;20231;-88
2023/06/07 07:18:07;;;;;;;9.80;9.50;;;19.10;99.90;;;;;;5046471;28;20227;-89
2023/06/07 07:21:06;;;;;;;9.90;9.60;;;19.40;99.90;;;;;;5044935;28;20212;-88
2023/06/07 07:24:05;;;;;;;9.70;9.40;;;19.50;99.90;;;;;;5045365;28;20250;-89
2023/06/07 07:26:35;;;;;;;10.20;9.90;;;19.70;99.90;;;;;;5045263;28;20235;-89
2023/06/07 07:29:21;;;;;;;9.98;9.68;;;19.90;99.90;;;;;;5044443;28;20239;-89
2023/06/07 07:31:50;;;;;;;9.95;9.65;;;20.10;99.90;;;;;;5044485;28;20241;-88
2023/06/07 07:34:19;;;;;;;9.70;9.40;;;20.30;99.90;;;;;;5045349;28;20224;-88
2023/06/07 07:37:02;;;;;;;;;;;;;;;;;;;;;
2023/06/07 07:39:36;;;;;;;9.88;9.57;;;20.60;99.90;;;;;;5047613;28;20282;-88
2023/06/07 07:42:14;;;;;;;9.77;9.48;;;20.80;99.90;;;;;;5046241;28;20227;-88
2023/06/07 07:44:43;;;;;;;9.70;9.40;;;20.90;99.90;;;;;;5050958;28;20243;-83
2023/06/07 07:47:13;;;;;;;9.80;9.50;;;20.90;99.90;;;;;;5049561;28;20227;-82
2023/06/07 07:49:42;;;;;;;10.05;9.75;;;20.80;99.90;;;;;;5047277;28;20233;-81
2023/06/07 07:52:12;;;;;;;9.80;9.50;;;20.60;99.90;;;;;;5047918;28;20254;-82
2023/06/07 07:57:39;;;;;;;10.50;10.20;;;20.70;99.90;;;;;;5050674;28;20223;-79
2023/06/07 08:00:18;;;;;;;10.00;9.70;;;20.80;99.90;;;;;;5056958;28;20241;-80
2023/06/07 08:02:46;;;;;;;10.10;9.80;;;21.00;99.90;;;;;;5052410;28;20220;-81
2023/06/07 08:05:14;;;;;;;10.00;9.70;;;21.10;99.90;;;;;;5049355;28;20258;-80
2023/06/07 08:07:43;;;;;;;9.80;9.50;;;21.20;99.90;;;;;;5051816;28;20207;-80
2023/06/07 08:10:22;;;;;;;9.70;9.40;;;21.50;99.90;;;;;;5052448;28;20543;-79
2023/06/07 08:12:51;;;;;;;9.75;9.45;;;21.50;99.90;;;;;;5036494;28;20215;-81
2023/06/07 08:15:23;;;;;;;9.80;9.50;;;21.40;99.90;;;;;;5046448;28;20294;-80
2023/06/07 08:17:51;;;;;;;9.75;9.45;;;21.50;99.90;;;;;;5045985;28;20250;-81
2023/06/07 08:20:21;;;;;;;10.48;10.18;;;21.70;99.90;;;;;;5046249;28;20242;-79
2023/06/07 08:22:51;;;;;;;10.00;9.70;;;22.00;99.90;;;;;;5047684;28;20246;-81
2023/06/07 08:28:07;;;;;;;10.07;9.77;;;22.10;99.90;;;;;;5047214;28;20219;-80
2023/06/07 08:30:37;;;;;;;9.98;9.68;;;22.20;99.90;;;;;;5047394;28;20250;-79
2023/06/07 08:33:06;;;;;;;9.65;9.35;;;22.20;99.90;;;;;;5047695;28;20227;-80
2023/06/07 08:35:35;;;;;;;9.70;9.40;;;22.20;99.90;;;;;;5046377;28;20239;-80
2023/06/07 08:38:05;;;;;;;9.98;9.68;;;22.40;99.90;;;;;;5046726;28;20268;-79
2023/06/07 08:43:21;;;;;;;9.85;9.55;;;22.60;99.90;;;;;;5043974;28;20231;-80
2023/06/07 08:45:51;;;;;;;10.40;10.10;;;22.70;99.90;;;;;;5043371;28;20293;-79
2023/06/07 08:48:21;;;;;;;10.32;10.02;;;23.00;99.90;;;;;;5044378;28;20223;-79
2023/06/07 08:50:51;;;;;;;9.85;9.55;;;23.30;99.90;;;;;;5046292;28;20231;-79
2023/06/07 08:53:28;;;;;;;9.60;9.30;;;23.50;99.90;;;;;;5045812;28;20212;-80
2023/06/07 08:56:32;;;;;;;9.98;9.68;;;23.60;99.90;;;;;;5046811;28;20227;-86
2023/06/07 08:59:13;;;;;;;10.00;9.70;;;23.50;99.90;;;;;;5046585;28;20241;-87
2023/06/07 09:01:42;;;;;;;9.85;9.55;;;23.40;99.90;;;;;;5045986;28;20283;-89
2023/06/07 09:06:57;;;;;;;9.68;9.38;;;24.00;99.90;;;;;;5045645;28;20219;-87
2023/06/07 09:09:28;;;;;;;9.73;9.43;;;24.20;99.90;;;;;;5047693;28;20231;-88
2023/06/07 09:12:05;;;;;;;9.80;9.50;;;24.20;99.90;;;;;;5047752;28;20234;-88
2023/06/07 09:14:34;;;;;;;9.85;9.55;;;24.20;99.90;;;;;;5048497;28;20227;-89
2023/06/07 09:17:05;;;;;;;9.70;9.40;;;24.20;99.90;;;;;;5047395;28;20236;-89
2023/06/07 09:19:43;;;;;;;9.65;9.35;;;24.30;99.90;;;;;;5045599;28;20242;-89
2023/06/07 09:22:14;;;;;;;9.77;9.48;;;24.20;99.90;;;;;;5045427;28;20261;-89
2023/06/07 09:24:42;;;;;;;9.68;9.38;;;24.20;99.90;;;;;;5044454;28;20216;-89
2023/06/07 09:30:05;;;;;;;9.68;9.38;;;23.70;99.90;;;;;;5045352;28;20231;-89
2023/06/07 09:32:38;;;;;;;9.63;9.32;;;23.50;99.90;;;;;;5046390;28;20235;-89
2023/06/07 09:35:14;;;;;;;10.00;9.70;;;23.50;99.90;;;;;;5046044;28;20305;-89
2023/06/07 09:37:44;;;;;;;9.70;9.40;;;23.60;99.90;;;;;;5045820;28;20235;-89
2023/06/07 09:40:15;;;;;;;9.70;9.40;;;23.90;99.90;;;;;;5046112;28;20262;-88
2023/06/07 09:45:29;;;;;;;9.30;9.00;;;24.50;99.90;;;;;;5056710;28;20320;-88
2023/06/07 09:48:09;;;;;;;9.45;9.15;;;24.70;99.90;;;;;;5058889;28;20223;-89
2023/06/07 09:50:37;;;;;;;9.63;9.32;;;24.90;99.90;;;;;;5060121;28;20262;-89
2023/06/07 09:53:08;;;;;;;9.98;9.68;;;25.30;99.90;;;;;;5054949;28;20239;-89
2023/06/07 09:58:32;;;;;;;9.60;9.30;;;25.50;99.90;;;;;;5046051;28;20317;-89
2023/06/07 10:01:01;;;;;;;9.50;9.20;;;25.20;99.90;;;;;;5045044;28;20238;-89
2023/06/07 10:03:33;;;;;;;10.10;9.80;;;25.10;99.90;;;;;;5045505;28;20228;-89
2023/06/07 10:06:01;;;;;;;9.95;9.65;;;25.10;99.90;;;;;;5045051;28;20235;-89
2023/06/07 10:08:31;;;;;;;9.85;9.55;;;25.10;99.90;;;;;;5045334;28;20286;-89
2023/06/07 10:11:01;;;;;;;9.75;9.45;;;24.80;99.90;;;;;;5044062;28;20239;-87
2023/06/07 10:13:31;;;;;;;9.98;9.68;;;24.70;99.90;;;;;;5045375;28;20227;-89
2023/06/07 10:16:00;;;;;;;9.80;9.50;;;24.60;99.90;;;;;;5044615;28;20250;-89
2023/06/07 10:18:28;;;;;;;9.50;9.20;;;24.80;99.90;;;;;;5045310;28;20295;-89
2023/06/07 10:21:06;;;;;;;9.77;9.48;;;25.20;99.90;;;;;;5045191;28;20266;-89
2023/06/07 10:26:35;;;;;;;9.60;9.30;;;25.70;99.90;;;;;;5045474;28;20224;-89
2023/06/07 10:29:10;;;;;;;9.93;9.63;;;26.10;99.90;;;;;;5045750;28;20231;-89
2023/06/07 10:31:48;;;;;;;9.90;9.60;;;26.40;99.90;;;;;;5046479;28;20286;-89
2023/06/07 10:34:18;;;;;;;9.90;9.60;;;26.80;99.90;;;;;;5045027;28;20231;-89
2023/06/07 10:36:47;;;;;;;9.90;9.60;;;27.20;99.90;;;;;;5044820;28;20280;-89
2023/06/07 10:39:17;;;;;;;10.10;9.80;;;27.30;99.90;;;;;;5044926;28;20232;-89
2023/06/07 10:41:46;;;;;;;10.00;9.70;;;27.50;99.90;;;;;;5045917;28;20231;-89
2023/06/07 10:47:30;;;;;;;9.65;9.35;;;27.90;99.90;;;;;;5044354;28;20222;-88
2023/06/07 10:50:00;;;;;;;9.60;9.30;;;27.90;99.90;;;;;;5045780;28;21084;-88
2023/06/07 10:52:28;;;;;;;9.57;9.27;;;27.70;99.90;;;;;;5045833;28;20235;-88
2023/06/07 10:54:57;;;;;;;10.00;9.70;;;27.80;99.90;;;;;;5040074;28;20263;-89
2023/06/07 10:57:44;;;;;;;9.70;9.40;;;27.90;99.90;;;;;;5041501;28;20232;-88
2023/06/07 11:03:48;;;;;;;10.13;9.82;;;27.40;99.90;;;;;;5059127;28;20236;-88
2023/06/07 11:06:16;;;;;;;10.40;10.10;;;27.10;99.90;;;;;;5041630;28;20228;-89
2023/06/07 11:08:44;;;;;;;10.13;9.82;;;27.30;99.90;;;;;;5057755;28;20254;-90
2023/06/07 11:11:51;;;;;;;10.20;9.90;;;27.40;99.90;;;;;;5059288;28;20227;-82
2023/06/07 11:14:18;;;;;;;9.82;9.52;;;27.30;99.90;;;;;;5059433;28;20223;-81
2023/06/07 11:16:49;;;;;;;9.90;9.60;;;27.50;99.90;;;;;;5061177;28;20211;-81
2023/06/07 11:19:18;;;;;;;9.82;9.52;;;27.70;99.90;;;;;;5060797;28;20227;-81
2023/06/07 11:22:06;;;;;;;9.80;9.50;;;28.10;99.90;;;;;;5061108;28;20215;-83
2023/06/07 11:24:41;;;;;;;9.50;9.20;;;28.30;99.90;;;;;;5061867;28;20271;-81
2023/06/07 11:27:14;;;;;;;9.55;9.25;;;28.30;99.90;;;;;;5060807;28;20222;-83
2023/06/07 11:29:42;;;;;;;9.52;9.23;;;28.10;99.90;;;;;;5060523;28;20223;-80
2023/06/07 11:35:02;;;;;;;9.70;9.40;;;27.40;99.90;;;;;;5057086;28;20267;-81
2023/06/07 11:37:30;;;;;;;9.80;9.50;;;26.90;99.90;;;;;;5058646;28;20290;-81
2023/06/07 11:40:04;;;;;;;9.80;9.50;;;26.70;99.90;;;;;;5060045;28;20274;-81
2023/06/07 11:42:34;;;;;;;10.40;10.10;;;26.50;99.90;;;;;;5044291;28;20246;-81
2023/06/07 11:45:03;;;;;;;10.25;9.95;;;26.50;99.90;;;;;;5045468;28;20547;-81
2023/06/07 11:47:42;;;;;;;10.10;9.80;;;26.80;99.90;;;;;;5043858;28;20288;-81
2023/06/07 11:50:11;;;;;;;10.43;10.13;;;26.90;99.90;;;;;;5043592;28;20227;-81
2023/06/07 11:52:41;;;;;;;10.70;10.40;;;26.90;99.90;;;;;;5044074;28;20299;-79
2023/06/07 11:55:10;;;;;;;10.50;10.20;;;26.60;99.90;;;;;;5042366;28;20227;-81
2023/06/07 11:57:41;;;;;;;10.95;10.65;;;26.70;99.90;;;;;;5043684;28;20235;-82
2023/06/07 12:00:13;;;;;;;10.82;10.52;;;27.10;99.90;;;;;;5050936;28;20232;-82
2023/06/07 12:05:30;;;;;;;10.60;10.30;;;27.80;99.90;;;;;;5045227;28;20223;-82
2023/06/07 12:08:04;;;;;;;10.70;10.40;;;28.10;99.90;;;;;;5051067;28;20228;-81
2023/06/07 12:10:34;;;;;;;10.70;10.40;;;28.40;99.90;;;;;;5054652;28;20226;-80
2023/06/07 12:13:13;;;;;;;10.57;10.27;;;28.90;99.90;;;;;;5049993;28;20239;-81
2023/06/07 12:15:52;;;;;;;10.57;10.27;;;29.30;99.90;;;;;;5045212;28;20235;-82
2023/06/07 12:18:30;;;;;;;10.50;10.20;;;29.60;99.90;;;;;;5044051;28;20254;-81
2023/06/07 12:21:08;;;;;;;10.48;10.18;;;29.90;99.90;;;;;;5032915;28;20226;-82
2023/06/07 12:23:37;;;;;;;10.70;10.40;;;30.40;99.90;;;;;;5045602;28;20394;-82
2023/06/07 12:26:09;;;;;;;10.80;10.50;;;30.70;99.90;;;;;;5044989;28;20247;-82
2023/06/07 12:28:38;;;;;;;10.57;10.27;;;30.90;99.90;;;;;;5043978;28;20301;-80
2023/06/07 12:31:17;;;;;;;11.10;10.80;;;31.20;99.90;;;;;;5051157;28;20211;-81
2023/06/07 12:36:39;;;;;;;10.63;10.32;;;31.40;99.90;;;;;;5040596;28;20698;-81
2023/06/07 12:39:09;;;;;;;10.50;10.20;;;30.80;99.90;;;;;;5041376;28;20277;-80
2023/06/07 12:41:38;;;;;;;10.50;10.20;;;30.50;99.90;;;;;;5042606;28;20235;-81
2023/06/07 12:44:08;;;;;;;9.82;9.52;;;30.70;99.90;;;;;;5041972;28;20238;-81
2023/06/07 12:46:58;;;;;;;10.18;9.88;;;31.10;99.90;;;;;;5043611;28;20242;-82
2023/06/07 12:49:27;;;;;;;10.00;9.70;;;31.00;99.90;;;;;;5042765;28;20243;-79
2023/06/07 12:51:55;;;;;;;10.18;9.88;;;30.60;99.90;;;;;;5042753;28;20216;-82
2023/06/07 12:54:23;;;;;;;10.60;10.30;;;30.10;99.90;;;;;;5042637;28;20231;-82
2023/06/07 12:56:52;;;;;;;11.10;10.80;;;29.10;99.90;;;;;;5043056;28;20255;-81
2023/06/07 12:59:24;;;;;;;10.25;9.95;;;28.50;99.90;;;;;;5043134;28;20228;-82
2023/06/07 13:01:52;;;;;;;9.98;9.68;;;28.00;99.90;;;;;;5043604;28;20211;-80
2023/06/07 13:04:21;;;;;;;10.32;10.02;;;28.00;99.90;;;;;;5035865;22;20240;-81
2023/06/07 13:09:37;;;;;;;10.02;9.73;;;29.20;99.90;;;;;;5023406;28;20231;-82
2023/06/07 13:12:07;;;;;;;9.90;9.60;;;29.50;99.90;;;;;;5023347;28;20242;-81
2023/06/07 13:14:38;;;;;;;10.50;10.20;;;29.40;99.90;;;;;;5024658;28;20236;-83
2023/06/07 13:17:06;;;;;;;10.30;10.00;;;29.10;99.90;;;;;;5022931;28;20286;-81
2023/06/07 13:19:36;;;;;;;10.27;9.98;;;29.10;99.90;;;;;;5022745;28;20232;-81
2023/06/07 13:22:07;;;;;;;10.90;10.60;;;29.30;99.90;;;;;;5024367;28;20255;-82
2023/06/07 13:24:35;;;;;;;10.90;10.60;;;29.90;99.90;;;;;;5028252;28;20232;-81
2023/06/07 13:27:04;;;;;;;11.27;10.98;;;30.40;99.90;;;;;;5029101;28;20248;-83
2023/06/07 13:29:34;;;;;;;11.20;10.90;;;31.00;99.90;;;;;;5026557;28;20259;-84
2023/06/07 13:32:02;;;;;;;11.32;11.02;;;31.40;99.90;;;;;;5026305;28;20216;-83
2023/06/07 13:34:32;;;;;;;11.45;11.15;;;31.50;99.90;;;;;;5025094;28;20232;-81
2023/06/07 13:37:01;;;;;;;11.18;10.88;;;31.40;99.90;;;;;;5029044;28;20231;-81
2023/06/07 13:39:32;;;;;;;10.70;10.40;;;31.70;99.90;;;;;;5026896;28;20243;-81
2023/06/07 13:42:01;;;;;;;11.00;10.70;;;32.00;99.90;;;;;;5026688;28;20240;-82
2023/06/07 13:44:31;;;;;;;11.00;10.70;;;32.30;99.90;;;;;;5021834;28;20240;-81
2023/06/07 13:46:59;;;;;;;11.10;10.80;;;32.40;99.90;;;;;;5018305;28;20283;-81
2023/06/07 13:49:29;;;;;;;10.60;10.30;;;32.50;99.90;;;;;;5025651;28;20278;-79
2023/06/07 13:51:59;;;;;;;10.40;10.10;;;32.70;99.90;;;;;;5017567;28;20216;-81
2023/06/07 13:54:28;;;;;;;10.52;10.23;;;33.00;99.90;;;;;;5026913;28;20240;-80
2023/06/07 13:56:58;;;;;;;10.13;9.82;;;32.90;99.90;;;;;;5029983;28;20232;-80
2023/06/07 13:59:28;;;;;;;10.00;9.70;;;32.70;99.90;;;;;;5029532;28;20236;-81
2023/06/07 14:01:59;;;;;;;10.07;9.77;;;31.90;99.90;;;;;;5027893;28;20279;-80
2023/06/07 14:04:26;;;;;;;10.25;9.95;;;31.50;99.90;;;;;;5027594;28;20303;-79
2023/06/07 14:06:55;;;;;;;10.52;10.23;;;30.90;99.90;;;;;;5018357;28;20246;-81
2023/06/07 14:09:24;;;;;;;10.77;10.48;;;30.40;99.90;;;;;;5026190;28;20224;-80
2023/06/07 14:11:53;;;;;;;10.70;10.40;;;30.00;99.90;;;;;;5025994;28;20236;-80
2023/06/07 14:14:25;;;;;;;10.52;10.23;;;29.50;99.90;;;;;;5026182;28;20267;-80
2023/06/07 14:16:54;;;;;;;10.57;10.27;;;29.20;99.90;;;;;;5022672;28;20268;-81
2023/06/07 14:19:23;;;;;;;10.30;10.00;;;29.20;99.90;;;;;;5016445;28;20287;-80
2023/06/07 14:21:52;;;;;;;10.45;10.15;;;29.70;99.90;;;;;;5026303;28;20235;-80
2023/06/07 14:24:24;;;;;;;10.50;10.20;;;30.30;99.90;;;;;;5026430;28;20252;-80
2023/06/07 14:26:55;;;;;;;10.30;10.00;;;30.50;99.90;;;;;;5027147;28;20239;-81
2023/06/07 14:29:24;;;;;;;10.50;10.20;;;30.90;99.90;;;;;;5027994;28;20243;-82
2023/06/07 14:31:52;;;;;;;10.48;10.18;;;31.30;99.90;;;;;;5040240;28;20216;-81
2023/06/07 14:34:20;;;;;;;10.30;10.00;;;31.70;99.90;;;;;;5040985;28;20227;-79
2023/06/07 14:36:50;;;;;;;10.55;10.25;;;32.00;99.90;;;;;;5040637;28;20239;-80
2023/06/07 14:39:20;;;;;;;10.75;10.45;;;31.90;99.90;;;;;;5040370;28;20251;-81
2023/06/07 14:41:49;;;;;;;10.70;10.40;;;31.70;99.90;;;;;;5034509;28;20264;-81
2023/06/07 14:44:19;;;;;;;10.50;10.20;;;31.60;99.90;;;;;;5028250;28;20236;-81
2023/06/07 14:46:50;;;;;;;10.45;10.15;;;31.60;99.90;;;;;;5026957;28;20251;-81
2023/06/07 14:49:26;;;;;;;10.30;10.00;;;31.80;99.90;;;;;;5030212;28;20224;-81
2023/06/07 14:51:55;;;;;;;10.05;9.75;;;31.80;99.90;;;;;;5025945;28;20220;-81
2023/06/07 14:54:24;;;;;;;10.30;10.00;;;31.50;99.90;;;;;;5032316;28;20240;-80
2023/06/07 14:56:54;;;;;;;10.27;9.98;;;31.00;99.90;;;;;;5030931;28;20236;-81
2023/06/07 14:59:24;;;;;;;10.18;9.88;;;30.30;99.90;;;;;;5028180;28;20323;-81
2023/06/07 15:01:55;;;;;;;9.75;9.45;;;30.20;99.90;;;;;;5027529;28;20224;-81
2023/06/07 15:04:23;;;;;;;9.65;9.35;;;30.00;99.90;;;;;;5026778;28;20507;-81
2023/06/07 15:06:54;;;;;;;9.90;9.60;;;29.90;99.90;;;;;;5026934;28;20259;-80
2023/06/07 15:09:24;;;;;;;9.70;9.40;;;29.70;99.90;;;;;;5013949;28;20241;-81
2023/06/07 15:11:51;;;;;;;9.50;9.20;;;29.50;99.90;;;;;;5008401;28;20233;-79
2023/06/07 15:14:21;;;;;;;9.80;9.50;;;29.40;99.90;;;;;;5007833;28;20233;-80
2023/06/07 15:17:00;;;;;;;10.05;9.75;;;29.40;99.90;;;;;;5007423;28;20237;-80
2023/06/07 15:19:29;;;;;;;10.20;9.90;;;29.60;99.90;;;;;;5006808;28;20239;-81
2023/06/07 15:21:58;;;;;;;10.10;9.80;;;29.70;99.90;;;;;;5006239;28;20225;-81
2023/06/07 15:24:38;;;;;;;10.50;10.20;;;30.00;99.90;;;;;;5006617;28;20237;-81
2023/06/07 15:27:06;;;;;;;10.40;10.10;;;30.30;99.90;;;;;;5006685;28;20283;-80
2023/06/07 15:29:34;;;;;;;10.63;10.32;;;30.60;99.90;;;;;;5018810;28;20259;-81
2023/06/07 15:32:32;;;;;;;10.57;10.27;;;31.00;99.90;;;;;;5018928;28;20236;-81
2023/06/07 15:35:11;;;;;;;10.60;10.30;;;31.30;99.90;;;;;;5023866;28;20281;-83
2023/06/07 15:37:39;;;;;;;10.57;10.27;;;31.70;99.90;;;;;;5030479;28;20252;-84
2023/06/07 15:40:08;;;;;;;10.30;10.00;;;31.90;99.90;;;;;;5031688;28;20231;-83
2023/06/07 15:42:37;;;;;;;10.30;10.00;;;32.00;99.90;;;;;;5030701;28;20295;-84
2023/06/07 15:45:07;;;;;;;10.32;10.02;;;32.10;99.90;;;;;;5033161;28;20236;-85
2023/06/07 15:47:46;;;;;;;10.00;9.70;;;32.00;99.90;;;;;;5027196;28;20330;-85
2023/06/07 15:50:14;;;;;;;10.50;10.20;;;31.80;99.90;;;;;;5029023;28;20231;-83
2023/06/07 15:52:44;;;;;;;10.40;10.10;;;31.50;99.90;;;;;;5030656;28;20267;-84
2023/06/07 15:55:13;;;;;;;10.40;10.10;;;31.20;99.90;;;;;;5027715;28;20255;-84
2023/06/07 15:57:42;;;;;;;10.35;10.05;;;30.60;99.90;;;;;;5027031;28;20211;-84
2023/06/07 16:00:15;;;;;;;10.48;10.18;;;30.30;99.90;;;;;;5027397;28;20236;-85
2023/06/07 16:02:44;;;;;;;10.63;10.32;;;30.40;99.90;;;;;;5024700;28;20236;-85
2023/06/07 16:05:12;;;;;;;10.50;10.20;;;30.70;99.90;;;;;;5015933;28;20229;-86
2023/06/07 16:07:40;;;;;;;10.43;10.13;;;30.60;99.90;;;;;;5022721;28;20239;-85
2023/06/07 16:10:09;;;;;;;10.40;10.10;;;30.30;99.90;;;;;;5025453;28;20255;-85
2023/06/07 16:12:39;;;;;;;10.68;10.38;;;30.50;99.90;;;;;;5025037;28;20294;-85
2023/06/07 16:15:20;;;;;;;10.30;10.00;;;30.50;99.90;;;;;;5025696;28;20228;-84
2023/06/07 16:17:58;;;;;;;10.50;10.20;;;30.20;99.90;;;;;;5026607;28;20232;-85
2023/06/07 16:20:26;;;;;;;10.18;9.88;;;30.00;99.90;;;;;;5026202;28;20224;-85
2023/06/07 16:23:06;;;;;;;9.57;9.27;;;29.70;99.90;;;;;;5025655;28;20292;-85
2023/06/07 16:25:34;;;;;;;9.60;9.30;;;29.70;99.90;;;;;;5025682;28;20231;-85
2023/06/07 16:28:04;;;;;;;9.65;9.35;;;29.50;99.90;;;;;;5016611;28;20239;-85
2023/06/07 16:30:33;;;;;;;9.60;9.30;;;29.30;99.90;;;;;;5029982;28;20236;-84
2023/06/07 16:33:13;;;;;;;9.70;9.40;;;29.20;99.90;;;;;;5025570;28;20232;-85
2023/06/07 16:35:42;;;;;;;9.75;9.45;;;29.00;99.90;;;;;;5025005;28;20327;-85
2023/06/07 16:38:10;;;;;;;10.30;10.00;;;28.70;99.90;;;;;;5025212;28;20263;-86
2023/06/07 16:40:39;;;;;;;10.20;9.90;;;28.40;99.90;;;;;;5032888;28;20224;-85
2023/06/07 16:43:09;;;;;;;10.13;9.82;;;28.10;99.90;;;;;;5029244;28;21051;-86
2023/06/07 16:45:39;;;;;;;10.20;9.90;;;27.80;99.90;;;;;;5028582;28;20236;-84
2023/06/07 16:50:55;;;;;;;10.30;10.00;;;27.10;99.90;;;;;;5024225;28;20228;-84
2023/06/07 16:53:24;;;;;;;10.93;10.63;;;26.80;99.90;;;;;;5024929;28;20247;-84
2023/06/07 16:55:53;;;;;;;10.90;10.60;;;26.70;99.90;;;;;;5029499;28;20232;-84
2023/06/07 16:58:23;;;;;;;10.60;10.30;;;26.70;99.90;;;;;;5027319;28;20240;-84
2023/06/07 17:00:52;;;;;;;10.50;10.20;;;26.70;99.90;;;;;;5024454;28;20254;-84
2023/06/07 17:03:31;;;;;;;10.77;10.48;;;26.70;99.90;;;;;;5028638;28;20236;-84
2023/06/07 17:06:01;;;;;;;10.40;10.10;;;26.80;99.90;;;;;;5018758;28;20239;-84
2023/06/07 17:08:30;;;;;;;10.50;10.20;;;26.70;99.90;;;;;;5027292;28;20228;-84
2023/06/07 17:11:01;;;;;;;10.25;9.95;;;26.70;99.90;;;;;;5009149;28;20240;-84
2023/06/07 17:13:29;;;;;;;10.70;10.40;;;26.70;99.90;;;;;;5026535;28;20232;-84
2023/06/07 17:15:58;;;;;;;10.43;10.13;;;26.70;99.90;;;;;;5028845;28;20230;-83
2023/06/07 17:21:14;;;;;;;10.40;10.10;;;26.30;99.90;;;;;;5021992;28;20249;-84
2023/06/07 17:23:45;;;;;;;10.43;10.13;;;26.40;99.90;;;;;;5028102;28;20248;-84
2023/06/07 17:26:14;;;;;;;10.32;10.02;;;26.30;99.90;;;;;;5032338;28;20228;-83
2023/06/07 17:28:44;;;;;;;10.30;10.00;;;26.20;99.90;;;;;;5029328;28;20239;-84
2023/06/07 17:31:13;;;;;;;10.30;10.00;;;26.20;99.90;;;;;;5029800;28;20248;-84
2023/06/07 17:33:45;;;;;;;10.27;9.98;;;26.20;99.90;;;;;;5030464;28;20243;-84
2023/06/07 17:36:13;;;;;;;10.15;9.85;;;26.20;99.90;;;;;;5034335;28;20228;-84
2023/06/07 17:38:44;;;;;;;10.65;10.35;;;26.30;99.90;;;;;;5028294;28;20232;-84
2023/06/07 17:41:13;;;;;;;10.73;10.43;;;26.50;99.90;;;;;;5028537;28;20256;-84
2023/06/07 17:43:40;;;;;;;10.65;10.35;;;26.70;99.90;;;;;;5034742;28;20296;-84
2023/06/07 17:46:10;;;;;;;10.50;10.20;;;26.90;99.90;;;;;;5030691;28;20232;-85
2023/06/07 17:51:25;;;;;;;10.30;10.00;;;27.30;99.90;;;;;;5028075;28;20282;-84
2023/06/07 17:53:55;;;;;;;9.88;9.57;;;27.50;99.90;;;;;;5028456;28;20235;-84
2023/06/07 17:56:26;;;;;;;9.95;9.65;;;27.60;99.90;;;;;;5027649;28;20259;-84
2023/06/07 17:58:56;;;;;;;9.57;9.27;;;27.70;99.90;;;;;;5029037;28;20232;-85
2023/06/07 18:01:25;;;;;;;9.80;9.50;;;27.70;99.90;;;;;;5029047;28;20228;-84
2023/06/07 18:04:02;;;;;;;9.82;9.52;;;27.70;99.90;;;;;;5027738;28;20732;-85
2023/06/07 18:06:31;;;;;;;10.02;9.73;;;27.60;99.90;;;;;;5027593;28;20247;-86
2023/06/07 18:09:05;;;;;;;9.88;9.57;;;27.60;99.90;;;;;;5018593;28;20236;-85
2023/06/07 18:11:38;;;;;;;10.20;9.90;;;27.60;99.90;;;;;;5026049;28;20262;-85
2023/06/07 18:14:12;;;;;;;10.18;9.88;;;27.40;99.90;;;;;;5025996;28;20290;-85
2023/06/07 18:16:40;;;;;;;9.93;9.63;;;27.40;99.90;;;;;;5026479;28;20243;-85
2023/06/07 18:19:11;;;;;;;9.90;9.60;;;27.30;99.90;;;;;;5027400;28;21150;-85
2023/06/07 18:21:39;;;;;;;9.80;9.50;;;27.30;99.90;;;;;;5026383;28;20231;-85
2023/06/07 18:24:07;;;;;;;9.70;9.40;;;27.30;99.90;;;;;;5026483;28;20283;-84
2023/06/07 18:26:37;;;;;;;9.48;9.18;;;27.20;99.90;;;;;;5027864;28;20229;-83
2023/06/07 18:29:06;;;;;;;9.55;9.25;;;26.90;99.90;;;;;;5029887;28;20263;-85
2023/06/07 18:31:36;;;;;;;9.35;9.05;;;26.60;99.90;;;;;;5027420;28;20252;-85
2023/06/07 18:34:16;;;;;;;9.60;9.30;;;26.40;99.90;;;;;;5032627;28;20240;-84
2023/06/07 18:36:44;;;;;;;9.40;9.10;;;26.30;99.90;;;;;;5027305;28;20227;-85
2023/06/07 18:39:19;;;;;;;9.70;9.40;;;26.10;99.90;;;;;;5026803;28;20235;-85
2023/06/07 18:41:53;;;;;;;9.60;9.30;;;26.00;99.90;;;;;;5026437;28;20230;-84
2023/06/07 18:44:32;;;;;;;9.55;9.25;;;25.80;99.90;;;;;;5026375;28;20223;-85
2023/06/07 18:47:04;;;;;;;9.60;9.30;;;25.60;99.90;;;;;;5028306;28;20236;-85
2023/06/07 18:49:41;;;;;;;9.50;9.20;;;25.30;99.90;;;;;;5027879;28;20228;-85
2023/06/07 18:52:17;;;;;;;9.40;9.10;;;25.20;99.90;;;;;;5026076;28;20261;-86
2023/06/07 18:54:48;;;;;;;9.40;9.10;;;25.10;99.90;;;;;;5026131;28;20243;-86
2023/06/07 18:57:17;;;;;;;9.50;9.20;;;24.90;99.90;;;;;;5027322;28;20251;-86
2023/06/07 18:59:45;;;;;;;9.27;8.98;;;24.80;99.90;;;;;;5021574;28;20239;-85
2023/06/07 19:02:32;;;;;;;10.20;9.90;;;24.70;99.90;;;;;;5031840;28;20228;-86
2023/06/07 19:07:47;;;;;;;10.30;10.00;;;24.60;99.90;;;;;;5025930;28;20271;-85
2023/06/07 19:10:19;;;;;;;10.00;9.70;;;24.40;99.90;;;;;;5026650;28;20232;-85
2023/06/07 19:12:47;;;;;;;10.02;9.73;;;24.20;99.90;;;;;;5027114;28;20232;-86
2023/06/07 19:15:18;;;;;;;10.00;9.70;;;24.00;99.90;;;;;;5027499;28;20240;-86
2023/06/07 19:17:46;;;;;;;10.00;9.70;;;23.90;99.90;;;;;;5026481;28;20260;-85
2023/06/07 19:20:20;;;;;;;10.10;9.80;;;23.90;99.90;;;;;;5027519;28;20260;-86
2023/06/07 19:25:31;;;;;;;9.65;9.35;;;23.80;99.90;;;;;;5025797;28;20263;-86
2023/06/07 19:28:00;;;;;;;9.85;9.55;;;23.80;99.90;;;;;;5026927;28;20291;-85
2023/06/07 19:30:30;;;;;;;10.63;10.32;;;23.60;99.90;;;;;;5025937;28;20232;-85
2023/06/07 19:33:00;;;;;;;9.88;9.57;;;23.50;99.90;;;;;;5027915;28;20304;-85
2023/06/07 19:35:31;;;;;;;10.00;9.70;;;23.40;99.90;;;;;;5032455;28;20219;-85
2023/06/07 19:38:00;;;;;;;9.90;9.60;;;23.30;99.90;;;;;;5033114;28;20271;-84
2023/06/07 19:40:29;;;;;;;10.15;9.85;;;23.20;99.90;;;;;;5030633;28;20228;-86
2023/06/07 19:42:57;;;;;;;10.10;9.80;;;23.10;99.90;;;;;;5027979;28;20263;-86
2023/06/07 19:45:26;;;;;;;9.63;9.32;;;22.90;99.90;;;;;;5026975;28;20247;-84
2023/06/07 19:47:56;;;;;;;8.70;8.50;;;22.80;99.90;;;;;;5024978;28;20236;-85
2023/06/07 19:50:25;;;;;;;8.68;8.48;;;22.70;99.90;;;;;;5027425;28;20244;-85
2023/06/07 19:52:58;;;;;;;8.70;8.50;;;22.60;99.90;;;;;;5026072;28;20254;-85
2023/06/07 19:55:26;;;;;;;8.60;8.40;;;22.40;99.90;;;;;;5027387;28;20221;-85
2023/06/07 19:57:56;;;;;;;9.30;9.00;;;22.30;99.90;;;;;;5025669;28;20224;-86
2023/06/07 20:00:26;;;;;;;9.20;8.90;;;22.20;99.90;;;;;;5025074;28;20232;-86
2023/06/07 20:02:54;;;;;;;8.63;8.43;;;22.10;99.90;;;;;;5024445;28;20279;-84
2023/06/07 20:05:22;;;;;;;8.77;8.57;;;22.10;99.90;;;;;;5025368;28;20244;-85
2023/06/07 20:07:51;;;;;;;8.80;8.60;;;22.00;99.90;;;;;;5024867;28;20232;-85
2023/06/07 20:10:23;;;;;;;8.80;8.60;;;22.00;99.90;;;;;;5024454;28;20267;-86
2023/06/07 20:12:51;;;;;;;8.70;8.50;;;21.90;99.90;;;;;;5024259;28;20244;-84
2023/06/07 20:15:21;;;;;;;9.00;8.80;;;21.90;99.90;;;;;;5025332;28;20263;-83
2023/06/07 20:17:51;;;;;;;8.80;8.60;;;21.90;99.90;;;;;;5026093;28;20243;-84
2023/06/07 20:20:23;;;;;;;8.77;8.57;;;21.80;99.90;;;;;;5024772;28;20338;-84
2023/06/07 20:22:50;;;;;;;8.52;8.32;;;21.70;99.90;;;;;;5024872;28;20295;-84
2023/06/07 20:25:31;;;;;;;8.80;8.60;;;21.70;99.90;;;;;;5025177;28;20240;-84
2023/06/07 20:27:58;;;;;;;8.88;8.68;;;21.60;99.90;;;;;;5248360;22;20238;-84
2023/06/07 20:30:30;;;;;;;9.40;9.10;;;21.60;99.90;;;;;;5071452;28;20234;-84
2023/06/07 20:32:58;;;;;;;9.02;8.82;;;21.50;99.90;;;;;;5060582;28;20251;-84
2023/06/07 20:35:25;;;;;;;9.30;9.00;;;21.50;99.90;;;;;;5054153;28;20235;-84
2023/06/07 20:38:00;;;;;;;9.27;9.00;;;21.50;99.90;;;;;;5046068;28;20223;-84
2023/06/07 20:40:34;;;;;;;9.18;8.98;;;21.50;99.90;;;;;;5029256;28;20234;-83
2023/06/07 20:43:03;;;;;;;9.00;8.80;;;21.40;99.90;;;;;;5047576;28;20223;-84
2023/06/07 20:45:34;;;;;;;9.20;9.00;;;21.40;99.90;;;;;;5044276;28;20250;-84